• Join FlightAware (Why Join?)
  • Login
  • US Flag 
03:02PM EST


 

Airport Tracker/Info


-or-


 

Live Flight TrackerFlight Track Log ✈ TAM3531 ✈ 11-Jul-2013 ✈ SBVT / VIX - SBRJ / SDU

Flight Track Log - Related Links

Times and Time Zones

All times are in EDT time to prevent confusion due to time zone crossing. See the TAM3531 flight status page for this flight to view local times or setup timezone preferences in your user account.

Time Position Orientation Groundspeed Altitude Reporting Facility
EDT Latitude Longitude Course Direction KTS MPH feet Rate Location/Type
04:37PM -20.2610 -40.2770 107° East 117 135  Level FlightAware
04:39PM -20.2580 -40.2890 285° West 117 135 30 Level FlightAware
04:41PM -20.2610 -40.2770 225° Southwest 117 135 32 Level FlightAware
04:42PM -20.3965 -40.4353 225° Southwest  Level Estimated
04:43PM -20.2580 -40.2890 285° West 117 135  Level FlightAware
04:44PM -20.2610 -40.2770 105° East 117 135 36 Level FlightAware
04:45PM -20.2610 -40.2760 90° East 117 135 37 Level FlightAware
04:47PM -20.2620 -40.2750 137° Southeast 117 135 40 Level FlightAware
04:47PM -20.2580 -40.2890 287° West 117 135 43 Level FlightAware
04:48PM -20.2610 -40.2770 105° East 117 135 44 Level FlightAware
04:49PM -20.2580 -40.2890 285° West 117 135 46 Level FlightAware
04:50PM -20.2610 -40.2760 104° East 117 135 47 Level FlightAware
04:51PM -20.2610 -40.2770 270° West 117 135 48 Level FlightAware
04:54PM -20.3858 -40.4095 225° Southwest  Level Estimated
04:54PM -20.2610 -40.2760 225° Southwest 117 135  Level FlightAware
04:54PM -20.2580 -40.2890 284° West 117 135 60 Level FlightAware
04:55PM -20.2610 -40.2770 105° East 117 135 62 Level FlightAware
04:55PM -20.2610 -40.2760 90° East 117 135 64 Level FlightAware
04:57PM -20.2610 -40.2770 270° West 117 135 66 Level FlightAware
04:57PM -20.2580 -40.2890 285° West 117 135 73 Level FlightAware
04:57PM -20.2610 -40.2760 104° East 117 135 74 Level FlightAware
04:59PM -20.2580 -40.2890 284° West 117 135 76 Level FlightAware
05:01PM -20.2550 -40.2760 76° East 117 135 90 Level FlightAware
05:01PM -20.2550 -40.2750 90° East 117 135 107 Level FlightAware
05:02PM -20.2550 -40.2760 270° West 117 135 113 Level FlightAware
05:04PM -20.2590 -40.2890 252° West 117 135 121 Level FlightAware
05:05PM -20.2590 -40.2900 270° West 117 135 165 Level FlightAware
05:05PM -20.2510 -40.2810 47° Northeast 117 135 177 Level FlightAware
05:07PM -20.2600 -40.2880 216° Southwest 117 135 207 Level FlightAware
05:07PM -20.2580 -40.2870 25° Northeast 117 135 311 Level FlightAware
05:08PM -20.2550 -40.2850 32° Northeast 117 135 355 Level FlightAware
05:09PM -20.2530 -40.2840 25° Northeast 117 135 492 Level FlightAware
05:09PM -20.2520 -40.2830 43° Northeast 117 135 612 Level FlightAware
05:09PM -20.2510 -40.2820 43° Northeast 117 135 741 Level FlightAware
05:10PM -20.2570 -40.2860 212° Southwest 117 135 822 Level FlightAware
05:10PM -20.2770 -40.2970 207° Southwest 169 194 1,000 2,400 Climbing FlightAware
05:10PM -20.2830 -40.2980 189° South 179 206 1,400 2,353 Climbing FlightAware
05:11PM -20.3190 -40.2990 181° South 221 254 3,000 3,429 Climbing FlightAware
05:11PM -20.3400 -40.2890 156° South 206 237 5,000 4,571 Climbing FlightAware
05:12PM -20.3590 -40.2960 199° South 214 246 6,200 3,136 Climbing FlightAware
05:12PM -20.3840 -40.3090 206° Southwest 251 289 7,300 2,737 Climbing FlightAware
05:13PM -20.4210 -40.3270 205° Southwest 283 326 8,800 2,541 Climbing FlightAware
05:14PM -20.4820 -40.3560 204° Southwest 326 375 10,900 2,688 Climbing FlightAware
05:14PM -20.5520 -40.3920 206° Southwest 366 421 13,100 3,035 Climbing FlightAware
05:15PM -20.6090 -40.4360 216° Southwest 378 435 15,200 3,000 Climbing FlightAware
05:16PM -20.6730 -40.4870 217° Southwest 386 444 17,500 2,795 Climbing FlightAware
05:16PM -20.7250 -40.5290 217° Southwest 386 444 19,300 2,494 Climbing FlightAware
05:17PM -20.7800 -40.5750 218° Southwest 402 463 20,700 2,137 Climbing FlightAware
05:18PM -20.8290 -40.6140 217° Southwest 410 472 21,900 2,625 Climbing FlightAware
05:18PM -20.8970 -40.6690 217° Southwest 399 459 24,200 2,964 Climbing FlightAware
05:19PM -20.9550 -40.7170 218° Southwest 398 458 26,000 2,667 Climbing FlightAware
05:20PM -21.0270 -40.7760 217° Southwest 391 450 27,800 1,412 Climbing FlightAware
05:20PM -21.0930 -40.8300 217° Southwest 390 449 28,000 141 Climbing FlightAware
05:21PM -21.1630 -40.8870 217° Southwest 388 447 28,000  Level FlightAware
05:22PM -21.2100 -40.9260 218° Southwest 390 449 28,000  Level FlightAware
05:23PM -21.2870 -40.9890 217° Southwest 390 449 28,000  Level FlightAware
05:24PM -21.3590 -41.0480 217° Southwest 389 448 28,000  Level FlightAware
05:24PM -21.4040 -41.0850 217° Southwest 388 447 28,000  Level FlightAware
05:25PM -21.4710 -41.1400 217° Southwest 387 445 28,000  Level FlightAware
05:26PM -21.6040 -41.2500 218° Southwest 387 445 28,000  Level FlightAware
05:26PM -21.6520 -41.2900 218° Southwest 387 445 28,000  Level FlightAware
05:27PM -21.7180 -41.3440 217° Southwest 387 445 28,000  Level FlightAware
05:28PM -21.7660 -41.3840 218° Southwest 388 447 28,000  Level FlightAware
05:28PM -21.8270 -41.4340 217° Southwest 389 448 28,000  Level FlightAware
05:29PM -21.8810 -41.4800 218° Southwest 389 448 28,000  Level FlightAware
05:30PM -21.9470 -41.5340 217° Southwest 389 448 28,000  Level FlightAware
05:30PM -22.0040 -41.5810 217° Southwest 388 447 28,000  Level FlightAware
05:31PM -22.0630 -41.6310 218° Southwest 387 445 28,000  Level FlightAware
05:32PM -22.1230 -41.6810 218° Southwest 387 445 28,000  Level FlightAware
05:33PM -22.1790 -41.7280 218° Southwest 386 444 28,000  Level FlightAware
05:33PM -22.2360 -41.7750 217° Southwest 386 444 28,000  Level FlightAware
05:34PM -22.2930 -41.8230 218° Southwest 386 444 28,000  Level FlightAware
05:35PM -22.3710 -41.8880 218° Southwest 385 443 28,000  Level FlightAware
05:35PM -22.4340 -41.9410 218° Southwest 385 443 28,000  Level FlightAware
05:36PM -22.4900 -41.9880 218° Southwest 386 444 28,000  Level FlightAware
05:37PM -22.5520 -42.0400 218° Southwest 386 444 28,000  Level FlightAware
05:37PM -22.6040 -42.0880 220° Southwest 383 441 28,000 -1,105 Level FlightAware
05:38PM -22.6490 -42.1420 228° Southwest 391 450 26,600 -1,846 Descending FlightAware
05:39PM -22.6950 -42.1990 229° Southwest 374 430 25,600 -1,765 Descending FlightAware
05:39PM -22.7450 -42.2620 229° Southwest 371 427 24,100 -2,053 Descending FlightAware
05:40PM -22.7810 -42.3070 229° Southwest 369 425 23,000 -2,000 Descending FlightAware
05:41PM -22.8300 -42.3680 229° Southwest 364 419 21,600 -1,395 Descending FlightAware
05:41PM -22.8740 -42.4250 230° Southwest 339 390 21,000 -964 Descending FlightAware
05:42PM -22.8820 -42.4470 248° West 334 384 20,700 -1,448 Descending FlightAware
05:42PM -22.8960 -42.5170 258° West 330 380 19,600 -1,590 Descending FlightAware
05:43PM -22.9080 -42.5800 258° West 326 375 18,500 -1,571 Descending FlightAware
05:44PM -22.9220 -42.6520 258° West 322 371 17,400 -1,481 Descending FlightAware
05:44PM -22.9330 -42.7090 258° West 319 367 16,500 -1,360 Descending FlightAware
05:45PM -22.9420 -42.7570 258° West 317 365 15,700 -1,350 Descending FlightAware
05:46PM -22.9540 -42.8190 258° West 315 362 14,700 -1,463 Descending FlightAware
05:46PM -22.9660 -42.8820 258° West 313 360 13,700 -1,378 Descending FlightAware
05:47PM -22.9750 -42.9260 257° West 311 358 13,000 -1,462 Descending FlightAware
05:48PM -22.9880 -43.0000 259° West 308 354 11,800 -1,482 Descending FlightAware
05:48PM -23.0000 -43.0580 257° West 306 352 10,900 -1,333 Descending FlightAware
05:49PM -23.0110 -43.1170 259° West 303 349 10,000 -1,099 Descending FlightAware
05:50PM -23.0220 -43.1790 259° West 278 320 9,600 -652 Descending FlightAware
05:50PM -23.0270 -43.2000 255° West 271 312 9,500 -800 Descending FlightAware
05:50PM -23.0340 -43.2380 259° West 274 315 9,000 -1,138 Descending FlightAware
05:51PM -23.0410 -43.2780 259° West 272 313 8,400 -842 Descending FlightAware
05:51PM -23.0480 -43.3150 258° West 255 293 8,200 -286 Descending FlightAware
05:51PM -23.0520 -43.3330 256° West 242 278 8,200 -409 Level FlightAware
05:52PM -23.0590 -43.3670 257° West 229 264 7,900 -517 Descending FlightAware
05:52PM -23.0650 -43.3970 258° West 216 249 7,700 -643 Descending FlightAware
05:53PM -23.0720 -43.4260 255° West 212 244 7,300 -778 Descending FlightAware
05:53PM -23.0780 -43.4520 256° West 208 239 7,000 -321 Descending FlightAware
05:54PM -23.0850 -43.4830 256° West 212 244 7,000  Level FlightAware
05:54PM -23.0910 -43.5080 255° West 212 244 7,000  Level FlightAware
05:55PM -23.0930 -43.5380 266° West 210 242 7,000 -338 Level FlightAware
05:55PM -23.0450 -43.5290 10° North 197 227 6,600 -625 Descending FlightAware
05:56PM -23.0360 -43.5250 22° Northeast 198 228 6,500 -545 Descending FlightAware
05:56PM -23.0170 -43.5170 21° North 201 231 6,300 -566 Descending FlightAware
05:56PM -22.9910 -43.5050 23° Northeast 201 231 6,000 -600 Descending FlightAware
05:57PM -22.9830 -43.5010 25° Northeast 199 229 5,900 -400 Descending FlightAware
05:57PM -22.9660 -43.4920 26° Northeast 202 232 5,800 -533 Descending FlightAware
05:57PM -22.9450 -43.4800 28° Northeast 209 241 5,500 -600 Descending FlightAware
05:58PM -22.9380 -43.4660 62° Northeast 214 246 5,400 -343 Descending FlightAware
05:58PM -22.9290 -43.4470 63° Northeast 206 237 5,300 -667 Descending FlightAware
05:58PM -22.9180 -43.4250 62° Northeast 202 232 4,900 -900 Descending FlightAware
05:59PM -22.9030 -43.3970 60° Northeast 204 235 4,400 -1,000 Descending FlightAware
05:59PM -22.8910 -43.3720 62° Northeast 202 232 3,900 -1,091 Descending FlightAware
06:00PM -22.8790 -43.3450 64° Northeast 201 231 3,400 -873 Descending FlightAware
06:00PM -22.8720 -43.3250 69° East 195 224 3,100 -873 Descending FlightAware
06:01PM -22.8640 -43.2980 72° East 184 212 2,600 -885 Descending FlightAware
06:01PM -22.8550 -43.2710 70° East 136 157 2,200 -471 Descending FlightAware
06:02PM -22.8540 -43.2670 75° East 130 150 2,200 -667 Level FlightAware
06:02PM -22.8550 -43.2550 95° East 123 142 1,800 -1,102 Descending FlightAware
06:02PM -22.8560 -43.2360 93° East 112 129 1,300 -632 Descending FlightAware
06:03PM -22.8570 -43.2250 96° East 114 131 1,200 -375 Descending FlightAware
06:03PM -22.8590 -43.2090 98° East 112 129 1,000 -316 Descending FlightAware
06:04PM -22.8630 -43.1930 105° East 112 129 900 -421 Descending FlightAware
06:04PM -22.8670 -43.1790 107° East 113 130 600 -526 Descending FlightAware
06:05PM -22.8770 -43.1670 132° Southeast 119 137 400 -364 Descending FlightAware
06:05PM -22.8920 -43.1640 170° South 127 146 -1,000 Descending FlightAware
06:06PM -22.9140 -43.1630 178° South 29 33  Level FlightAware
06:06PM -22.9150 -43.1630 180° South 16 18  Level FlightAware
06:09PM -22.9105 -43.1631 358° North  Level Estimated
06:10PM -22.9105 -43.1631 250° West  Level Estimated
06:11PM -22.9105 -43.1631 250° West  Level Estimated
06:12PM -22.9105 -43.1631 250° West  Level Estimated
06:13PM -22.9105 -43.1631 250° West  Level Estimated
06:14PM -22.9105 -43.1631 250° West  Level Estimated
06:15PM -22.9105 -43.1631 250° West  Level Estimated
06:16PM -22.9105 -43.1631 250° West  Level Estimated
06:17PM -22.9105 -43.1631 250° West  Level Estimated
06:18PM -22.9105 -43.1631 250° West  Level Estimated
06:19PM -22.9105 -43.1631 250° West  Level Estimated
06:20PM -22.9105 -43.1631 250° West  Level Estimated
06:21PM -22.9105 -43.1631 250° West  Level Estimated
06:22PM -22.9105 -43.1631 250° West  Level Estimated
06:23PM -22.9105 -43.1631 250° West  Level Estimated
06:24PM -22.9105 -43.1631 250° West  Level Estimated
06:25PM -22.9105 -43.1631 250° West  Level Estimated